Butte Valley, California
Current Conditions -  °F | °C
As of 12:53 AM on Monday 20 Oct 2014 (Local Time) from KOVE Reporting Station
Clear Clear  
Wind Chill: 64°   Ceiling: Unl
Heat Index: 64°   Visibility: 10mi
Dew Point: 51°   Wind: 6mph
Humidity: 63%   Direction: 90°E
Pressure: 29.87"   Gusts: NA
Location:  39.5324°N, 121.648°W
Report Text: KOVE 200753Z AUTO 09005KT 10SM CLR 18/11 A2987 RMK AO2 SLP115 T01780106 402720128
Loading
Personal Weather Stations






























Interactive Weather Map
Tropical Storm Tracking
New forecast layout! Learn more

10-Day Weather Forecast

Advertisements
Track Severe Weather on mobile